Aviation Digital Data Service (ADDS)

Output produced by METARs form (0108 UTC 17 July 2019)
found at http://www.aviationweather.gov/metar/data/
 
VCBI 170010Z 25009KT 220V300 9999 VCTS SCT018 FEW020CB 29/24 Q1007 NOSIG RMK SE
TAF VCBI 162300Z 1700/1806 25010KT 9999 SCT018 TX31/1708Z TN26/1700Z 
     PROB30 
     TEMPO 1700/1703 1710/1715 25010G20KT 6000 -TSRA/SHRA SCT016 FEW020CB